createdAt,value
2022-08-17T00:01:07.446Z,0
2022-08-17T00:04:11.638Z,0
2022-08-17T00:07:07.818Z,0
2022-08-17T00:10:18.057Z,0
2022-08-17T00:13:08.262Z,0
2022-08-17T00:16:08.469Z,0
2022-08-17T00:19:08.941Z,0
2022-08-17T00:22:34.870Z,0
2022-08-17T00:25:09.126Z,0
2022-08-17T00:28:09.360Z,0
2022-08-17T00:31:09.576Z,0
2022-08-17T00:34:09.821Z,0
2022-08-17T00:37:10.013Z,0
2022-08-17T00:40:10.281Z,0
2022-08-17T00:43:10.442Z,0
2022-08-17T00:46:10.657Z,0
2022-08-17T00:49:10.954Z,0
2022-08-17T00:52:06.075Z,0
2022-08-17T00:55:06.290Z,0
2022-08-17T00:58:06.512Z,0
2022-08-17T01:01:06.816Z,0
2022-08-17T01:04:06.937Z,0
2022-08-17T01:07:07.203Z,0
2022-08-17T01:10:07.407Z,0
2022-08-17T01:13:07.620Z,0
2022-08-17T01:16:07.803Z,0
2022-08-17T01:19:08.017Z,0
2022-08-17T01:22:08.244Z,0
2022-08-17T01:25:08.478Z,0
2022-08-17T01:28:08.694Z,0
2022-08-17T01:31:08.911Z,0
2022-08-17T01:34:09.157Z,0
2022-08-17T01:37:09.343Z,0
2022-08-17T01:40:09.623Z,0
2022-08-17T01:43:09.763Z,0
2022-08-17T01:46:10.000Z,0
2022-08-17T01:49:10.224Z,0
2022-08-17T01:52:10.425Z,0
2022-08-17T01:55:10.649Z,0
2022-08-17T01:58:10.868Z,0
2022-08-17T02:01:11.164Z,0
2022-08-17T02:04:06.274Z,0
2022-08-17T02:07:06.504Z,0
2022-08-17T02:10:06.715Z,0
2022-08-17T02:13:06.939Z,0
2022-08-17T02:16:07.134Z,0
2022-08-17T02:19:07.376Z,0
2022-08-17T02:22:07.600Z,0
2022-08-17T02:25:07.807Z,0
2022-08-17T02:28:08.008Z,0
2022-08-17T02:31:08.251Z,0
2022-08-17T02:34:08.457Z,0
2022-08-17T02:37:08.686Z,0
2022-08-17T02:40:08.917Z,0
2022-08-17T02:43:09.160Z,0
2022-08-17T02:46:09.341Z,0
2022-08-17T02:49:09.581Z,0
2022-08-17T02:52:09.771Z,0
2022-08-17T02:55:09.997Z,0
2022-08-17T02:58:10.188Z,0
2022-08-17T03:01:10.474Z,0
2022-08-17T03:04:10.636Z,0
2022-08-17T03:07:10.864Z,0
2022-08-17T03:10:11.077Z,0
2022-08-17T03:13:06.279Z,0
2022-08-17T03:16:06.487Z,0
2022-08-17T03:19:06.714Z,0
2022-08-17T03:22:35.562Z,0
2022-08-17T03:25:10.603Z,0
2022-08-17T03:28:07.360Z,0
2022-08-17T03:31:07.595Z,0
2022-08-17T03:34:07.816Z,0
2022-08-17T03:37:08.025Z,0
2022-08-17T03:40:08.277Z,0
2022-08-17T03:43:08.469Z,0
2022-08-17T03:46:27.090Z,0
2022-08-17T03:49:08.909Z,0
2022-08-17T03:52:09.148Z,0
2022-08-17T03:55:09.352Z,0
2022-08-17T03:58:09.574Z,0
2022-08-17T04:01:09.810Z,0
2022-08-17T04:04:10.003Z,0
2022-08-17T04:07:10.227Z,0
2022-08-17T04:10:10.447Z,0
2022-08-17T04:13:10.668Z,0
2022-08-17T04:16:10.886Z,0
2022-08-17T04:19:11.097Z,0.1
2022-08-17T04:22:30.690Z,0.2
2022-08-17T04:25:06.574Z,0.3
2022-08-17T04:28:09.025Z,0.4
2022-08-17T04:31:06.989Z,0.6
2022-08-17T04:34:07.185Z,0.8
2022-08-17T04:37:07.377Z,1
2022-08-17T04:40:07.824Z,1.3
2022-08-17T04:43:07.857Z,1.4
2022-08-17T04:46:08.027Z,1.5
2022-08-17T04:49:08.293Z,1.7
2022-08-17T04:52:08.482Z,1.9
2022-08-17T04:55:08.715Z,2.1
2022-08-17T04:58:08.981Z,2.3
2022-08-17T05:01:14.286Z,2.6
2022-08-17T05:04:21.441Z,2.9
2022-08-17T05:07:09.583Z,3.3
2022-08-17T05:10:09.819Z,3.7
2022-08-17T05:13:10.026Z,4.2
2022-08-17T05:16:10.231Z,4.6
2022-08-17T05:19:10.471Z,4.9
2022-08-17T05:22:10.707Z,5.3
2022-08-17T05:25:10.894Z,5.7
2022-08-17T05:28:11.137Z,6.1
2022-08-17T05:31:11.336Z,6.5
2022-08-17T05:34:06.605Z,6.8
2022-08-17T05:37:06.761Z,7
2022-08-17T05:40:07.063Z,7.2
2022-08-17T05:43:07.235Z,7.3
2022-08-17T05:46:07.428Z,7.2
2022-08-17T05:49:07.637Z,7.1
2022-08-17T05:52:07.912Z,6.9
2022-08-17T05:55:08.106Z,6.8
2022-08-17T05:58:08.292Z,6.8
2022-08-17T06:01:08.562Z,6.8
2022-08-17T06:04:08.714Z,6.9
2022-08-17T06:07:08.931Z,7.1
2022-08-17T06:10:09.152Z,7.4
2022-08-17T06:13:09.368Z,7.7
2022-08-17T06:16:33.359Z,8.2
2022-08-17T06:19:09.783Z,8.6
2022-08-17T06:22:10.035Z,9.3
2022-08-17T06:25:10.935Z,9.9
2022-08-17T06:28:13.898Z,10.4
2022-08-17T06:31:05.651Z,10.9
2022-08-17T06:34:10.888Z,11.7
2022-08-17T06:37:11.135Z,12.2
2022-08-17T06:40:06.371Z,12.7
2022-08-17T06:43:07.363Z,13.4
2022-08-17T06:46:06.733Z,13.8
2022-08-17T06:49:06.955Z,14.2
2022-08-17T06:52:07.159Z,14.6
2022-08-17T06:55:07.423Z,15
2022-08-17T06:58:15.977Z,15.3
2022-08-17T07:01:07.956Z,15.7
2022-08-17T07:04:12.094Z,16.1
2022-08-17T07:07:08.287Z,16.6
2022-08-17T07:10:08.539Z,17.4
2022-08-17T07:13:08.719Z,18.2
2022-08-17T07:16:08.942Z,19.1
2022-08-17T07:19:10.904Z,20.1
2022-08-17T07:22:09.384Z,21.4
2022-08-17T07:25:09.591Z,22.6
2022-08-17T07:28:09.801Z,23.3
2022-08-17T07:31:10.020Z,23.8
2022-08-17T07:34:10.246Z,24.2
2022-08-17T07:37:10.471Z,24.7
2022-08-17T07:40:16.494Z,25.4
2022-08-17T07:43:15.566Z,25.9
2022-08-17T07:46:11.040Z,26.3
2022-08-17T07:49:06.283Z,26.3
2022-08-17T07:52:48.014Z,27
2022-08-17T07:55:06.674Z,28.3
2022-08-17T07:58:06.932Z,28.9
2022-08-17T08:01:07.115Z,29.8
2022-08-17T08:04:07.428Z,30.2
2022-08-17T08:07:07.894Z,30.2
2022-08-17T08:10:07.787Z,30.3
2022-08-17T08:13:07.998Z,30.4
2022-08-17T08:16:08.216Z,30.2
2022-08-17T08:19:08.534Z,30.3
2022-08-17T08:22:08.810Z,31.1
2022-08-17T08:25:09.042Z,31.4
2022-08-17T08:28:09.089Z,31.9
2022-08-17T08:31:09.312Z,32.7
2022-08-17T08:34:58.816Z,33.4
2022-08-17T08:37:17.674Z,33.3
2022-08-17T08:40:10.041Z,34.2
2022-08-17T08:43:10.197Z,34.7
2022-08-17T08:46:10.401Z,34.9
2022-08-17T08:49:12.430Z,35
2022-08-17T08:52:10.846Z,35.2
2022-08-17T08:55:16.073Z,35.4
2022-08-17T08:58:06.289Z,35.8
2022-08-17T09:01:17.073Z,37.4
2022-08-17T09:04:21.789Z,38
2022-08-17T09:07:06.908Z,38
2022-08-17T09:10:07.144Z,39.5
2022-08-17T09:13:10.091Z,42
2022-08-17T09:16:07.554Z,44.7
2022-08-17T09:19:07.915Z,48.3
2022-08-17T09:22:08.000Z,53
2022-08-17T09:25:08.214Z,58
2022-08-17T09:28:08.441Z,63.7
2022-08-17T09:31:08.673Z,70.8
2022-08-17T09:34:08.893Z,77.3
2022-08-17T09:37:09.119Z,81.7
2022-08-17T09:40:09.464Z,85.5
2022-08-17T09:43:09.537Z,86.4
2022-08-17T09:46:09.754Z,88.5
2022-08-17T09:49:10.016Z,91.3
2022-08-17T09:52:10.207Z,95.2
2022-08-17T09:55:10.412Z,100.3
2022-08-17T09:58:10.665Z,104.9
2022-08-17T10:01:10.897Z,107.8
2022-08-17T10:04:11.063Z,113.7
2022-08-17T10:07:06.282Z,123.8
2022-08-17T10:10:08.693Z,132.9
2022-08-17T10:13:06.693Z,140.6
2022-08-17T10:16:06.908Z,147.9
2022-08-17T10:19:07.155Z,153.3
2022-08-17T10:22:14.427Z,161.6
2022-08-17T10:25:23.205Z,165.7
2022-08-17T10:28:09.798Z,169.9
2022-08-17T10:31:33.843Z,174
2022-08-17T10:34:08.215Z,173.6
2022-08-17T10:37:08.459Z,166.4
2022-08-17T10:40:08.766Z,156.9
2022-08-17T10:43:08.905Z,147.9
2022-08-17T10:46:30.662Z,133.3
2022-08-17T10:49:09.330Z,125.9
2022-08-17T10:52:09.643Z,113.4
2022-08-17T10:58:10.096Z,98.1
2022-08-17T11:01:15.131Z,84.7
2022-08-17T11:04:10.471Z,79.6
2022-08-17T11:07:10.618Z,74.1
2022-08-17T11:10:10.867Z,71.6
2022-08-17T11:13:11.040Z,75.5
2022-08-17T11:16:11.298Z,74.8
2022-08-17T11:19:11.504Z,74.7
2022-08-17T11:22:11.575Z,73.9
2022-08-17T11:25:11.869Z,72.6
2022-08-17T11:28:07.182Z,68.7
2022-08-17T11:31:07.556Z,65.8
2022-08-17T11:34:07.488Z,59.3
2022-08-17T11:37:07.711Z,49.8
2022-08-17T11:40:08.120Z,44.8
2022-08-17T11:43:10.402Z,41.5
2022-08-17T11:46:08.203Z,40
2022-08-17T11:49:08.455Z,41.8
2022-08-17T11:52:08.901Z,44.7
2022-08-17T11:55:34.061Z,46.4
2022-08-17T11:58:09.322Z,48.4
2022-08-17T12:01:09.429Z,48.9
2022-08-17T12:04:09.867Z,48.9
2022-08-17T12:07:09.916Z,47.4
2022-08-17T12:10:10.111Z,45.6
2022-08-17T12:13:10.265Z,42.1
2022-08-17T12:16:10.437Z,40.5
2022-08-17T12:19:10.839Z,40.5
2022-08-17T12:22:10.977Z,39.2
2022-08-17T12:25:11.176Z,37.8
2022-08-17T12:28:11.555Z,35.9
2022-08-17T12:31:11.693Z,35.2
2022-08-17T12:34:11.724Z,35
2022-08-17T12:37:12.080Z,34.7
2022-08-17T12:40:07.427Z,32.3
2022-08-17T12:43:07.272Z,29.2
2022-08-17T12:46:14.833Z,27.4
2022-08-17T12:49:07.753Z,26.3
2022-08-17T12:52:08.131Z,26.3
2022-08-17T12:55:08.286Z,26.9
2022-08-17T12:58:13.608Z,26.8
2022-08-17T13:01:08.671Z,27
2022-08-17T13:04:08.905Z,27.4
2022-08-17T13:07:09.163Z,28
2022-08-17T13:10:09.378Z,28.5
2022-08-17T13:13:09.441Z,29.2
2022-08-17T13:16:09.694Z,29.7
2022-08-17T13:19:09.857Z,29.9
2022-08-17T13:22:10.172Z,29.8
2022-08-17T13:25:10.384Z,29.5
2022-08-17T13:28:10.670Z,28.8
2022-08-17T13:31:10.766Z,27.8
2022-08-17T13:34:06.098Z,26.7
2022-08-17T13:37:11.182Z,25.3
2022-08-17T13:40:06.762Z,23.9
2022-08-17T13:43:06.733Z,21.8
2022-08-17T13:46:06.811Z,20
2022-08-17T13:49:07.061Z,18.3
2022-08-17T13:52:07.361Z,16.9
2022-08-17T13:55:07.486Z,15.7
2022-08-17T13:58:08.082Z,14.8
2022-08-17T14:01:08.171Z,13.9
2022-08-17T14:04:08.321Z,13.2
2022-08-17T14:07:08.599Z,13.4
2022-08-17T14:10:08.731Z,13.6
2022-08-17T14:13:08.827Z,14.3
2022-08-17T14:16:09.142Z,14.9
2022-08-17T14:19:09.433Z,15.5
2022-08-17T14:22:09.628Z,16.1
2022-08-17T14:25:10.626Z,17.1
2022-08-17T14:28:09.924Z,17.7
2022-08-17T14:31:10.153Z,18.9
2022-08-17T14:34:10.458Z,20.2
2022-08-17T14:37:10.741Z,21
2022-08-17T14:40:10.966Z,21.6
2022-08-17T14:43:11.157Z,22.3
2022-08-17T14:46:11.339Z,22.7
2022-08-17T14:49:11.605Z,22.6
2022-08-17T14:52:11.765Z,22.4
2022-08-17T14:55:07.064Z,21.8
2022-08-17T14:58:07.053Z,21.2
2022-08-17T15:01:07.492Z,20.6
2022-08-17T15:04:07.700Z,20.2
2022-08-17T15:07:07.967Z,19.7
2022-08-17T15:10:08.260Z,19.2
2022-08-17T15:13:08.503Z,18.8
2022-08-17T15:16:08.619Z,18.7
2022-08-17T15:19:08.655Z,18.3
2022-08-17T15:22:08.850Z,18
2022-08-17T15:25:09.345Z,17.5
2022-08-17T15:28:09.299Z,16.9
2022-08-17T15:31:09.766Z,16.3
2022-08-17T15:34:10.169Z,15.7
2022-08-17T15:37:10.128Z,15.3
2022-08-17T15:40:10.463Z,14.9
2022-08-17T15:43:10.485Z,14.6
2022-08-17T15:46:10.733Z,14.4
2022-08-17T15:49:11.068Z,14.7
2022-08-17T15:52:11.117Z,15.6
2022-08-17T15:55:11.322Z,16.1
2022-08-17T15:58:11.577Z,17.1
2022-08-17T16:01:44.608Z,18.1
2022-08-17T16:04:27.244Z,19.2
2022-08-17T16:07:07.349Z,19.8
2022-08-17T16:10:07.530Z,19.7
2022-08-17T16:13:17.382Z,18.9
2022-08-17T16:16:07.684Z,17.7
2022-08-17T16:19:08.213Z,17
2022-08-17T16:22:08.420Z,15.9
2022-08-17T16:25:08.502Z,14.8
2022-08-17T16:28:08.876Z,13.8
2022-08-17T16:31:08.882Z,12.8
2022-08-17T16:34:17.353Z,12.3
2022-08-17T16:37:09.251Z,11.9
2022-08-17T16:46:09.498Z,11.6
2022-08-17T16:49:09.694Z,11.4
2022-08-17T16:52:10.834Z,11
2022-08-17T16:55:10.135Z,11.3
2022-08-17T17:01:10.665Z,11.4
2022-08-17T17:04:10.587Z,11.5
2022-08-17T17:07:10.813Z,11.7
2022-08-17T17:10:06.032Z,12
2022-08-17T17:13:11.337Z,11.7
2022-08-17T17:16:06.485Z,11.3
2022-08-17T17:19:06.695Z,10.7
2022-08-17T17:22:06.919Z,9.6
2022-08-17T17:25:07.548Z,8.5
2022-08-17T17:28:07.482Z,7.5
2022-08-17T17:31:07.549Z,6.3
2022-08-17T17:34:07.922Z,5.1
2022-08-17T17:37:08.110Z,4.4
2022-08-17T17:40:08.338Z,3.5
2022-08-17T17:43:34.862Z,2.9
2022-08-17T17:46:28.034Z,2.9
2022-08-17T17:49:08.920Z,2.8
2022-08-17T18:16:24.291Z,2.3
2022-08-17T18:19:09.449Z,1.9
2022-08-17T18:22:14.118Z,1.6
2022-08-17T18:25:09.874Z,1.3
2022-08-17T18:28:10.106Z,1.2
2022-08-17T18:31:10.332Z,1.1
2022-08-17T18:34:23.356Z,0.5
2022-08-17T18:37:10.796Z,0
2022-08-17T18:40:11.010Z,0
2022-08-17T18:43:06.187Z,0
2022-08-17T18:46:06.436Z,0
2022-08-17T18:49:06.633Z,0
2022-08-17T18:52:06.875Z,0
2022-08-17T18:55:07.157Z,0
2022-08-17T18:58:07.305Z,0
2022-08-17T19:01:07.499Z,0
2022-08-17T19:04:07.726Z,0
2022-08-17T19:07:07.942Z,0
2022-08-17T19:10:08.260Z,0
2022-08-17T19:13:12.610Z,0
2022-08-17T19:16:14.196Z,0
2022-08-17T19:19:08.815Z,0
2022-08-17T19:22:09.059Z,0
2022-08-17T19:25:09.484Z,0
2022-08-17T19:28:12.707Z,0
2022-08-17T19:31:09.712Z,0
2022-08-17T19:34:09.929Z,0
2022-08-17T19:37:10.138Z,0
2022-08-17T19:40:10.431Z,0
2022-08-17T19:43:10.597Z,0
2022-08-17T19:46:10.825Z,0
2022-08-17T19:49:11.022Z,0
2022-08-17T19:52:06.296Z,0
2022-08-17T19:55:06.519Z,0
2022-08-17T19:58:06.668Z,0
2022-08-17T20:01:06.950Z,0
2022-08-17T20:04:07.140Z,0
2022-08-17T20:07:07.321Z,0
2022-08-17T20:10:07.550Z,0
2022-08-17T20:13:07.742Z,0
2022-08-17T20:16:08.030Z,0
2022-08-17T20:19:08.204Z,0
2022-08-17T20:22:08.419Z,0
2022-08-17T20:25:08.633Z,0
2022-08-17T20:28:08.914Z,0
2022-08-17T20:31:09.067Z,0
2022-08-17T20:34:09.292Z,0
2022-08-17T20:37:09.507Z,0
2022-08-17T20:40:09.834Z,0
2022-08-17T20:43:09.942Z,0
2022-08-17T20:46:10.171Z,0
2022-08-17T20:49:10.375Z,0
2022-08-17T20:52:10.610Z,0
2022-08-17T20:55:10.810Z,0
2022-08-17T20:58:06.023Z,0
2022-08-17T21:01:11.265Z,0
2022-08-17T21:04:06.468Z,0
2022-08-17T21:07:06.672Z,0
2022-08-17T21:10:06.923Z,0
2022-08-17T21:13:07.143Z,0
2022-08-17T21:16:07.344Z,0
2022-08-17T21:19:07.616Z,0
2022-08-17T21:22:07.768Z,0
2022-08-17T21:25:07.976Z,0
2022-08-17T21:28:08.218Z,0
2022-08-17T21:31:08.476Z,0
2022-08-17T21:34:08.694Z,0
2022-08-17T21:37:08.874Z,0
2022-08-17T21:40:09.133Z,0
2022-08-17T21:43:09.304Z,0
2022-08-17T21:46:09.561Z,0
2022-08-17T21:49:13.562Z,0
2022-08-17T21:52:09.969Z,0
2022-08-17T21:55:10.182Z,0
2022-08-17T21:58:14.022Z,0
2022-08-17T22:01:10.803Z,0
2022-08-17T22:04:10.854Z,0
2022-08-17T22:07:06.071Z,0
2022-08-17T22:10:06.295Z,0
2022-08-17T22:13:06.493Z,0
2022-08-17T22:16:15.369Z,0
2022-08-17T22:19:06.912Z,0
2022-08-17T22:22:07.146Z,0
2022-08-17T22:25:07.351Z,0
2022-08-17T22:28:07.589Z,0
2022-08-17T22:31:07.782Z,0
2022-08-17T22:34:08.042Z,0
2022-08-17T22:37:08.227Z,0
2022-08-17T22:40:08.723Z,0
2022-08-17T22:43:08.663Z,0
2022-08-17T22:46:08.926Z,0
2022-08-17T22:49:09.114Z,0
2022-08-17T22:52:09.348Z,0
2022-08-17T22:55:09.694Z,0
2022-08-17T22:58:09.774Z,0
2022-08-17T23:01:09.982Z,0
2022-08-17T23:04:10.192Z,0
2022-08-17T23:07:10.428Z,0
2022-08-17T23:10:10.680Z,0
2022-08-17T23:13:10.852Z,0
2022-08-17T23:16:11.089Z,0
2022-08-17T23:19:06.274Z,0
2022-08-17T23:22:06.502Z,0
2022-08-17T23:25:06.718Z,0
2022-08-17T23:28:06.948Z,0
2022-08-17T23:31:07.155Z,0
2022-08-17T23:34:07.732Z,0
2022-08-17T23:37:07.600Z,0
2022-08-17T23:40:07.885Z,0
2022-08-17T23:43:09.912Z,0
2022-08-17T23:46:08.271Z,0
2022-08-17T23:49:08.484Z,0
2022-08-17T23:52:08.720Z,0
2022-08-17T23:55:08.919Z,0
2022-08-17T23:58:09.133Z,0
